Time,TemperatureF,DewpointF,PressureIn,WindDirection,WindDirectionDegrees,WindSpeedMPH,WindSpeedGustMPH,Humidity,HourlyPrecipIn,Conditions,Clouds,dailyrainin,SoftwareType,DateUTC
2013-02-21 00:05:00,33.6,25.9,29.82,NE,45,1.6,3.1,73,0.00,,,0.01,pywws,2013-02-21 00:05:00,
2013-02-21 00:56:00,33.4,26.7,29.83,NE,45,0.0,1.6,76,0.00,,,0.00,pywws,2013-02-21 00:56:00,
2013-02-21 01:05:00,33.4,26.7,29.83,NE,45,0.0,1.6,76,0.00,,,0.00,pywws,2013-02-21 01:05:00,
2013-02-21 01:56:00,33.3,25.6,29.83,NE,45,0.7,4.5,73,0.00,,,0.00,pywws,2013-02-21 01:56:00,
2013-02-21 02:05:00,33.3,25.6,29.83,NE,45,0.7,4.5,73,0.00,,,0.00,pywws,2013-02-21 02:05:00,
2013-02-21 02:56:00,33.4,26.1,29.83,NW,315,0.0,1.6,74,0.00,,,0.00,pywws,2013-02-21 02:56:00,
2013-02-21 03:05:00,33.4,26.1,29.83,NW,315,0.0,1.6,74,0.00,,,0.00,pywws,2013-02-21 03:05:00,
2013-02-21 03:56:00,33.3,24.9,29.82,North,0,1.6,5.4,71,0.00,,,0.00,pywws,2013-02-21 03:56:00,
2013-02-21 04:05:00,33.3,24.9,29.82,North,0,1.6,5.4,71,0.00,,,0.00,pywws,2013-02-21 04:05:00,
2013-02-21 04:56:00,33.4,25.4,29.81,NE,45,0.0,1.6,72,0.00,,,0.00,pywws,2013-02-21 04:56:00,
2013-02-21 05:05:00,33.4,25.4,29.81,NE,45,0.0,1.6,72,0.00,,,0.00,pywws,2013-02-21 05:05:00,
2013-02-21 05:56:00,33.4,25.1,29.82,North,0,0.7,2.2,71,0.00,,,0.00,pywws,2013-02-21 05:56:00,
2013-02-21 06:05:00,33.4,25.1,29.82,North,0,0.7,2.2,71,0.00,,,0.00,pywws,2013-02-21 06:05:00,
2013-02-21 06:56:00,33.6,24.6,29.82,NE,45,0.0,1.6,69,0.00,,,0.00,pywws,2013-02-21 06:56:00,
2013-02-21 07:05:00,33.6,24.6,29.82,NE,45,0.0,1.6,69,0.00,,,0.00,pywws,2013-02-21 07:05:00,
2013-02-21 07:56:00,33.8,23.7,29.83,NNE,22,0.7,3.1,66,0.00,,,0.00,pywws,2013-02-21 07:56:00,
2013-02-21 08:05:00,33.8,23.7,29.83,NNE,22,0.7,3.1,66,0.00,,,0.00,pywws,2013-02-21 08:05:00,
2013-02-21 08:56:00,34.2,23.3,29.83,NW,315,3.1,6.9,64,0.00,,,0.00,pywws,2013-02-21 08:56:00,
2013-02-21 09:05:00,34.2,23.3,29.83,NW,315,3.1,6.9,64,0.00,,,0.00,pywws,2013-02-21 09:05:00,
2013-02-21 09:56:00,35.1,24.1,29.83,North,-999,1.6,3.1,64,0.00,,,0.00,pywws,2013-02-21 09:56:00,
2013-02-21 10:05:00,35.1,24.1,29.83,North,-999,1.6,3.1,64,0.00,,,0.00,pywws,2013-02-21 10:05:00,
2013-02-21 10:56:00,35.4,22.9,29.85,North,0,2.2,6.0,60,0.00,,,0.00,pywws,2013-02-21 10:56:00,
2013-02-21 11:05:00,35.4,22.9,29.85,North,0,2.2,6.0,60,0.00,,,0.00,pywws,2013-02-21 11:05:00,
2013-02-21 11:56:00,36.7,23.3,29.83,North,0,1.6,3.8,58,0.00,,,0.00,pywws,2013-02-21 11:56:00,
2013-02-21 12:05:00,36.7,23.3,29.83,North,0,1.6,3.8,58,0.00,,,0.00,pywws,2013-02-21 12:05:00,
2013-02-21 12:56:00,37.9,23.2,29.82,North,0,0.7,3.8,55,0.00,,,0.00,pywws,2013-02-21 12:56:00,
2013-02-21 13:05:00,37.9,23.2,29.82,North,0,0.7,3.8,55,0.00,,,0.00,pywws,2013-02-21 13:05:00,
2013-02-21 13:56:00,39.0,23.8,29.81,North,0,0.7,3.8,54,0.00,,,0.00,pywws,2013-02-21 13:56:00,
2013-02-21 14:05:00,39.0,23.8,29.81,North,0,0.7,3.8,54,0.00,,,0.00,pywws,2013-02-21 14:05:00,
2013-02-21 14:56:00,38.7,23.0,29.80,North,0,0.7,3.8,53,0.00,,,0.00,pywws,2013-02-21 14:56:00,
2013-02-21 15:05:00,38.7,23.0,29.80,North,0,0.7,3.8,53,0.00,,,0.00,pywws,2013-02-21 15:05:00,
2013-02-21 15:56:00,37.8,22.6,29.79,North,0,3.1,6.0,54,0.00,,,0.00,pywws,2013-02-21 15:56:00,
2013-02-21 16:05:00,37.8,22.6,29.79,North,0,3.1,6.0,54,0.00,,,0.00,pywws,2013-02-21 16:05:00,
2013-02-21 16:56:00,36.9,23.5,29.78,NW,315,0.7,3.8,58,0.00,,,0.00,pywws,2013-02-21 16:56:00,
2013-02-21 17:05:00,36.9,23.5,29.78,NW,315,0.7,3.8,58,0.00,,,0.00,pywws,2013-02-21 17:05:00,
2013-02-21 17:56:00,36.3,24.2,29.79,North,0,0.7,4.5,61,0.00,,,0.00,pywws,2013-02-21 17:56:00,
2013-02-21 18:05:00,36.3,24.2,29.79,North,0,0.7,4.5,61,0.00,,,0.00,pywws,2013-02-21 18:05:00,
2013-02-21 18:56:00,36.0,24.2,29.78,NNE,22,1.6,3.8,62,0.00,,,0.00,pywws,2013-02-21 18:56:00,
2013-02-21 19:05:00,36.0,24.2,29.78,NNE,22,1.6,3.8,62,0.00,,,0.00,pywws,2013-02-21 19:05:00,
2013-02-21 19:56:00,35.4,21.7,29.78,NW,315,0.7,2.2,57,0.00,,,0.00,pywws,2013-02-21 19:56:00,
2013-02-21 20:05:00,35.4,21.7,29.78,NW,315,0.7,2.2,57,0.00,,,0.00,pywws,2013-02-21 20:05:00,
2013-02-21 20:56:00,34.9,23.2,29.78,North,0,1.6,3.8,62,0.00,,,0.00,pywws,2013-02-21 20:56:00,
2013-02-21 21:05:00,34.9,23.2,29.78,North,0,1.6,3.8,62,0.00,,,0.00,pywws,2013-02-21 21:05:00,
2013-02-21 21:56:00,34.3,21.5,29.79,NW,315,1.6,3.8,59,0.00,,,0.00,pywws,2013-02-21 21:56:00,
2013-02-21 22:05:00,34.3,21.5,29.79,NW,315,1.6,3.8,59,0.00,,,0.00,pywws,2013-02-21 22:05:00,
2013-02-21 22:56:00,34.2,21.7,29.79,NE,45,2.2,4.5,60,0.00,,,0.00,pywws,2013-02-21 22:56:00,
2013-02-21 23:05:00,34.2,21.7,29.79,NE,45,2.2,4.5,60,0.00,,,0.00,pywws,2013-02-21 23:05:00,
2013-02-21 23:56:00,34.2,21.7,29.79,NW,315,2.2,6.9,60,0.00,,,0.00,pywws,2013-02-21 23:56:00,